createdAt,value
2022-09-27T00:00:43.437Z,0.73
2022-09-27T00:03:13.378Z,1.25
2022-09-27T00:05:40.547Z,1.20
2022-09-27T00:08:07.738Z,0.80
2022-09-27T00:10:34.313Z,0.73
2022-09-27T00:13:00.880Z,1.07
2022-09-27T00:15:27.494Z,0.63
2022-09-27T00:17:54.155Z,0.90
2022-09-27T00:20:21.292Z,0.90
2022-09-27T00:22:48.895Z,0.80
2022-09-27T00:25:16.272Z,0.70
2022-09-27T00:27:42.856Z,0.70
2022-09-27T00:30:10.798Z,0.77
2022-09-27T00:32:37.469Z,0.73
2022-09-27T00:35:04.597Z,0.95
2022-09-27T00:37:31.175Z,0.93
2022-09-27T00:39:57.759Z,0.90
2022-09-27T00:42:24.370Z,0.80
2022-09-27T00:45:03.004Z,0.70
2022-09-27T00:47:45.004Z,0.90
2022-09-27T00:50:21.124Z,1.00
2022-09-27T00:53:09.491Z,0.77
2022-09-27T00:55:49.199Z,0.95
2022-09-27T00:58:18.539Z,0.80
2022-09-27T01:00:50.909Z,0.88
2022-09-27T01:03:32.939Z,0.57
2022-09-27T01:06:00.993Z,1.02
2022-09-27T01:08:27.570Z,0.70
2022-09-27T01:11:11.205Z,0.98
2022-09-27T01:14:03.393Z,0.80
2022-09-27T01:16:42.369Z,0.80
2022-09-27T01:19:39.667Z,0.90
2022-09-27T01:22:06.203Z,1.50
2022-09-27T01:24:54.435Z,0.70
2022-09-27T01:27:45.223Z,0.82
2022-09-27T01:30:22.412Z,0.70
2022-09-27T01:33:19.817Z,0.98
2022-09-27T01:35:59.992Z,0.82
2022-09-27T01:38:42.141Z,0.80
2022-09-27T01:41:17.177Z,0.98
2022-09-27T01:44:01.439Z,0.87
2022-09-27T01:46:39.878Z,0.82
2022-09-27T01:49:13.385Z,0.70
2022-09-27T01:51:48.476Z,0.85
2022-09-27T01:54:25.255Z,1.08
2022-09-27T01:56:56.585Z,0.80
2022-09-27T01:59:29.489Z,0.70
2022-09-27T02:02:00.240Z,0.90
2022-09-27T02:04:33.420Z,1.10
2022-09-27T02:07:07.292Z,1.48
2022-09-27T02:09:42.914Z,0.90
2022-09-27T02:12:13.968Z,0.70
2022-09-27T02:14:55.634Z,0.90
2022-09-27T02:17:33.653Z,0.82
2022-09-27T02:20:25.286Z,0.80
2022-09-27T02:23:01.893Z,0.87
2022-09-27T02:25:43.067Z,0.98
2022-09-27T02:28:35.567Z,0.90
2022-09-27T02:31:02.431Z,0.88
2022-09-27T02:33:50.527Z,0.93
2022-09-27T02:36:17.516Z,1.07
2022-09-27T02:38:44.872Z,0.95
2022-09-27T02:41:20.247Z,1.10
2022-09-27T02:43:51.079Z,1.00
2022-09-27T02:46:39.296Z,1.27
2022-09-27T02:49:31.012Z,1.30
2022-09-27T02:52:18.612Z,0.98
2022-09-27T02:55:00.077Z,1.48
2022-09-27T02:57:59.163Z,1.00
2022-09-27T03:00:34.120Z,1.10
2022-09-27T03:03:17.036Z,1.40
2022-09-27T03:05:50.766Z,2.83
2022-09-27T03:08:18.432Z,0.95
2022-09-27T03:10:45.224Z,1.27
2022-09-27T03:13:12.873Z,1.00
2022-09-27T03:15:39.460Z,1.20
2022-09-27T03:18:06.579Z,1.20
2022-09-27T03:20:33.304Z,1.38
2022-09-27T03:22:59.889Z,1.00
2022-09-27T03:25:26.842Z,1.40
2022-09-27T03:27:53.937Z,1.20
2022-09-27T03:30:20.536Z,1.27
2022-09-27T03:32:47.249Z,1.20
2022-09-27T03:35:13.953Z,1.20
2022-09-27T03:37:41.156Z,1.23
2022-09-27T03:40:08.931Z,1.40
2022-09-27T03:42:35.563Z,1.08
2022-09-27T03:45:02.709Z,1.25
2022-09-27T03:47:29.251Z,1.35
2022-09-27T03:49:55.803Z,1.30
2022-09-27T03:52:22.411Z,1.20
2022-09-27T03:54:49.097Z,1.30
2022-09-27T03:57:16.032Z,1.30
2022-09-27T03:59:42.600Z,1.10
2022-09-27T04:02:09.231Z,1.30
2022-09-27T04:04:35.817Z,1.17
2022-09-27T04:07:02.585Z,1.08
2022-09-27T04:09:29.172Z,1.30
2022-09-27T04:11:55.808Z,1.42
2022-09-27T04:14:22.370Z,1.10
2022-09-27T04:16:49.057Z,1.67
2022-09-27T04:19:15.868Z,1.42
2022-09-27T04:21:42.642Z,1.20
2022-09-27T04:24:10.918Z,1.08
2022-09-27T04:26:38.204Z,1.30
2022-09-27T04:29:04.788Z,1.67
2022-09-27T04:31:31.896Z,1.23
2022-09-27T04:33:59.660Z,1.00
2022-09-27T04:36:27.361Z,1.10
2022-09-27T04:38:58.846Z,1.17
2022-09-27T04:41:28.029Z,1.40
2022-09-27T04:44:00.160Z,1.60
2022-09-27T04:46:31.450Z,0.98
2022-09-27T04:48:59.613Z,1.17
2022-09-27T04:51:27.064Z,1.17
2022-09-27T04:53:54.033Z,1.73
2022-09-27T04:56:20.693Z,0.77
2022-09-27T04:58:47.300Z,1.20
2022-09-27T05:01:14.034Z,1.30
2022-09-27T05:03:40.734Z,1.02
2022-09-27T05:06:07.447Z,0.90
2022-09-27T05:08:34.018Z,1.20
2022-09-27T05:11:01.254Z,1.55
2022-09-27T05:13:27.915Z,1.30
2022-09-27T05:15:54.530Z,1.45
2022-09-27T05:18:21.151Z,1.10
2022-09-27T05:20:47.764Z,1.33
2022-09-27T05:23:15.255Z,0.90
2022-09-27T05:25:43.011Z,1.13
2022-09-27T05:28:09.709Z,1.15
2022-09-27T05:30:36.624Z,1.30
2022-09-27T05:33:03.476Z,1.35
2022-09-27T05:35:30.084Z,1.38
2022-09-27T05:37:58.465Z,0.80
2022-09-27T05:40:42.344Z,1.15
2022-09-27T05:43:09.830Z,1.90
2022-09-27T05:45:36.843Z,1.05
2022-09-27T05:48:04.112Z,1.20
2022-09-27T05:50:30.756Z,1.50
2022-09-27T05:52:57.871Z,1.55
2022-09-27T05:55:24.504Z,1.07
2022-09-27T05:58:05.075Z,1.23
2022-09-27T06:00:32.469Z,1.52
2022-09-27T06:03:01.056Z,1.20
2022-09-27T06:05:29.517Z,1.30
2022-09-27T08:49:38.226Z,1.88
2022-09-27T08:52:09.508Z,1.55
2022-09-27T08:54:38.714Z,2.00
2022-09-27T08:57:12.573Z,1.60
2022-09-27T09:00:12.152Z,1.25
2022-09-27T13:17:40.234Z,0.87
2022-09-27T13:20:31.696Z,1.00
2022-09-27T13:22:59.835Z,0.90
2022-09-27T13:25:56.699Z,1.08
2022-09-27T13:28:49.359Z,1.10
2022-09-27T13:31:17.073Z,0.80
2022-09-27T13:33:54.608Z,1.00
2022-09-27T13:36:24.487Z,0.90
2022-09-27T13:39:06.261Z,1.00
2022-09-27T13:41:44.957Z,0.90
2022-09-27T13:44:20.245Z,0.80
2022-09-27T13:47:00.687Z,1.10
2022-09-27T13:49:37.550Z,0.90
2022-09-27T13:52:33.748Z,0.90
2022-09-27T13:55:03.632Z,0.88
2022-09-27T13:57:52.570Z,0.93
2022-09-27T14:00:29.713Z,0.90
2022-09-27T14:03:02.562Z,1.13
2022-09-27T14:05:41.325Z,1.02
2022-09-27T14:08:26.988Z,1.20
2022-09-27T14:10:55.141Z,0.90
2022-09-27T14:13:25.073Z,1.13
2022-09-27T14:15:54.749Z,1.00
2022-09-27T14:18:22.648Z,1.05
2022-09-27T14:20:52.259Z,1.20
2022-09-27T14:23:22.556Z,0.80
2022-09-27T14:25:52.028Z,1.13
2022-09-27T14:28:30.470Z,0.88
2022-09-27T14:31:22.213Z,0.90
2022-09-27T14:33:49.753Z,1.23
2022-09-27T14:36:55.936Z,1.03
2022-09-27T14:39:35.654Z,1.10
2022-09-27T14:42:05.185Z,1.08
2022-09-27T14:44:33.240Z,1.00
2022-09-27T14:47:23.607Z,0.80
2022-09-27T14:49:52.826Z,0.90
2022-09-27T14:52:32.855Z,0.88
2022-09-27T14:55:00.888Z,1.48
2022-09-27T14:57:32.605Z,1.10
2022-09-27T15:00:03.253Z,1.23
2022-09-27T15:02:30.269Z,1.00
2022-09-27T15:04:56.913Z,1.13
2022-09-27T15:07:24.049Z,1.10
2022-09-27T15:09:51.689Z,0.90
2022-09-27T15:12:25.802Z,0.90
2022-09-27T15:14:54.724Z,1.30
2022-09-27T15:17:22.411Z,1.00
2022-09-27T15:20:01.452Z,1.10
2022-09-27T15:22:43.366Z,1.13
2022-09-27T15:25:37.976Z,1.10
2022-09-27T15:28:11.511Z,1.20
2022-09-27T15:30:41.237Z,1.02
2022-09-27T15:33:32.076Z,1.20
2022-09-27T15:36:05.138Z,1.08
2022-09-27T15:38:43.536Z,1.15
2022-09-27T15:41:13.135Z,1.00
2022-09-27T15:43:45.347Z,1.15
2022-09-27T15:46:38.570Z,1.20
2022-09-27T15:49:18.018Z,1.25
2022-09-27T15:51:46.671Z,1.33
2022-09-27T15:54:13.468Z,1.00
2022-09-27T15:56:40.320Z,1.17
2022-09-27T15:59:12.656Z,1.20
2022-09-27T16:01:39.320Z,1.23
2022-09-27T16:04:09.155Z,0.95
2022-09-27T16:06:35.770Z,1.10
2022-09-27T16:09:02.395Z,1.58
2022-09-27T16:11:28.983Z,1.55
2022-09-27T16:13:56.161Z,1.20
2022-09-27T16:16:23.058Z,1.15
2022-09-27T16:18:49.818Z,1.43
2022-09-27T16:21:16.438Z,1.23
2022-09-27T16:23:43.127Z,1.50
2022-09-27T16:26:09.736Z,1.20
2022-09-27T16:28:36.318Z,1.73
2022-09-27T16:31:05.965Z,1.30
2022-09-27T16:33:33.232Z,1.83
2022-09-27T16:36:01.342Z,1.55
2022-09-27T16:38:30.165Z,1.13
2022-09-27T16:41:03.613Z,1.20
2022-09-27T16:43:32.147Z,1.40
2022-09-27T16:46:09.189Z,1.63
2022-09-27T16:48:35.944Z,1.70
2022-09-27T16:51:50.782Z,1.23
2022-09-27T16:54:17.797Z,1.35
2022-09-27T16:56:45.136Z,1.37
2022-09-27T16:59:11.983Z,1.23
2022-09-27T17:01:38.660Z,1.50
2022-09-27T17:04:05.340Z,1.30
2022-09-27T17:06:32.095Z,1.17
2022-09-27T17:09:02.829Z,1.30
2022-09-27T17:11:30.100Z,1.23
2022-09-27T17:13:56.740Z,1.95
2022-09-27T17:16:24.891Z,1.23
2022-09-27T17:18:51.596Z,1.65
2022-09-27T17:21:18.232Z,1.73
2022-09-27T17:23:44.901Z,1.65
2022-09-27T17:26:18.051Z,1.80
2022-09-27T17:28:45.129Z,1.55
2022-09-27T17:31:15.387Z,1.33
2022-09-27T17:33:44.497Z,1.50
2022-09-27T17:36:17.303Z,1.45
2022-09-27T17:38:45.674Z,1.70
2022-09-27T17:41:14.375Z,1.90
2022-09-27T17:43:49.883Z,2.05
2022-09-27T17:46:21.966Z,1.30
2022-09-27T17:49:08.296Z,2.13
2022-09-27T17:51:37.313Z,1.75
2022-09-27T17:54:04.858Z,1.60
2022-09-27T17:56:34.835Z,1.85
2022-09-27T17:59:01.390Z,2.03
2022-09-27T18:01:27.993Z,1.50
2022-09-27T18:03:56.527Z,1.40
2022-09-27T18:06:23.871Z,1.70
2022-09-27T18:08:51.000Z,2.10
2022-09-27T18:11:25.188Z,1.70
2022-09-27T18:13:51.752Z,1.60
2022-09-27T18:16:19.162Z,2.00
2022-09-27T18:18:48.081Z,2.38
2022-09-27T18:21:21.671Z,1.85
2022-09-27T18:23:53.585Z,1.87
2022-09-27T18:26:23.911Z,1.85
2022-09-27T18:28:52.619Z,1.60
2022-09-27T18:31:21.390Z,1.65
2022-09-27T18:33:49.664Z,1.60
2022-09-27T18:36:19.260Z,2.00
2022-09-27T18:38:47.296Z,1.92
2022-09-27T18:41:17.892Z,2.00
2022-09-27T18:43:45.884Z,1.90
2022-09-27T18:46:35.087Z,2.10
2022-09-27T18:49:04.997Z,2.03
2022-09-27T18:51:32.281Z,2.50
2022-09-27T18:54:05.260Z,2.25
2022-09-27T18:56:38.914Z,2.10
2022-09-27T18:59:08.525Z,2.42
2022-09-27T19:01:39.509Z,2.53
2022-09-27T19:04:07.612Z,2.50
2022-09-27T19:06:34.700Z,2.28
2022-09-27T19:09:01.917Z,3.13
2022-09-27T19:11:28.613Z,2.88
2022-09-27T19:13:57.402Z,2.90
2022-09-27T19:16:25.974Z,3.13
2022-09-27T19:18:52.807Z,3.40
2022-09-27T19:21:21.839Z,2.67
2022-09-27T19:23:49.748Z,3.30
2022-09-27T19:26:19.113Z,3.03
2022-09-27T19:28:46.957Z,3.13
2022-09-27T19:31:19.506Z,3.63
2022-09-27T19:33:46.391Z,3.38
2022-09-27T19:36:16.744Z,3.50
2022-09-27T19:38:43.676Z,3.37
2022-09-27T19:41:12.876Z,3.22
2022-09-27T19:43:40.273Z,3.88
2022-09-27T19:46:17.996Z,3.60
2022-09-27T19:48:45.880Z,4.50
2022-09-27T19:51:20.450Z,4.20
2022-09-27T19:53:47.413Z,4.40
2022-09-27T19:56:14.540Z,4.25
2022-09-27T19:58:42.234Z,4.40
2022-09-27T20:01:12.792Z,4.32
2022-09-27T20:03:41.729Z,3.97
2022-09-27T20:06:10.931Z,4.95
2022-09-27T20:08:37.741Z,5.03
2022-09-27T20:11:13.340Z,5.15
2022-09-27T20:13:40.848Z,4.45
2022-09-27T20:16:13.353Z,4.70
2022-09-27T20:18:45.676Z,5.25
2022-09-27T20:21:13.449Z,4.95
2022-09-27T20:23:40.193Z,4.85
2022-09-27T20:26:09.649Z,4.88
2022-09-27T20:28:41.356Z,5.10
2022-09-27T20:31:10.624Z,5.03
2022-09-27T20:33:52.325Z,5.28
2022-09-27T20:36:31.151Z,5.53
2022-09-27T20:39:03.769Z,4.93
2022-09-27T20:41:32.573Z,5.07
2022-09-27T20:44:03.292Z,5.60
2022-09-27T20:46:30.643Z,5.90
2022-09-27T20:49:00.010Z,4.97
2022-09-27T20:51:27.704Z,5.38
2022-09-27T20:53:54.963Z,5.10
2022-09-27T20:56:33.587Z,5.72
2022-09-27T20:59:02.673Z,6.00
2022-09-27T21:01:30.480Z,5.85
2022-09-27T21:04:03.040Z,5.88
2022-09-27T21:06:31.411Z,5.40
2022-09-27T21:08:59.175Z,5.00
2022-09-27T21:11:26.815Z,5.70
2022-09-27T21:13:53.831Z,5.72
2022-09-27T21:16:23.231Z,5.43
2022-09-27T21:18:54.897Z,5.67
2022-09-27T21:21:23.270Z,5.22
2022-09-27T21:23:55.063Z,6.35
2022-09-27T21:29:43.100Z,5.95
2022-09-27T21:32:09.655Z,5.43
2022-09-27T21:34:36.236Z,5.65
2022-09-27T21:37:04.220Z,5.57
2022-09-27T21:39:31.360Z,5.30
2022-09-27T21:41:58.054Z,5.25
2022-09-27T21:44:24.624Z,4.87
2022-09-27T21:46:52.176Z,5.22
2022-09-27T21:49:18.774Z,5.20
2022-09-27T21:51:45.652Z,4.78
2022-09-27T21:57:02.571Z,5.20
2022-09-27T21:59:29.163Z,4.47
2022-09-27T22:01:55.783Z,5.38
2022-09-27T22:04:22.377Z,5.00
2022-09-27T22:06:49.327Z,4.88
2022-09-27T22:09:18.881Z,4.50
2022-09-27T22:11:47.314Z,4.32
2022-09-27T22:14:16.068Z,4.75
2022-09-27T22:16:42.880Z,4.35
2022-09-27T22:19:12.155Z,4.53
2022-09-27T22:21:39.560Z,4.83
2022-09-27T22:24:10.809Z,4.63
2022-09-27T22:26:39.152Z,4.50
2022-09-27T22:29:06.728Z,4.07
2022-09-27T22:31:33.821Z,4.40
2022-09-27T22:34:03.367Z,4.10
2022-09-27T22:36:31.528Z,4.47
2022-09-27T22:38:58.303Z,4.00
2022-09-27T22:41:25.247Z,4.30
2022-09-27T22:43:55.028Z,4.22
2022-09-27T22:46:22.190Z,3.57
2022-09-27T22:48:51.889Z,3.83
2022-09-27T22:51:18.979Z,4.15
2022-09-27T22:53:45.612Z,4.35
2022-09-27T22:56:17.546Z,4.60
2022-09-27T22:58:44.915Z,3.80
2022-09-27T23:01:17.148Z,3.97
2022-09-27T23:03:45.448Z,4.05
2022-09-27T23:06:12.464Z,4.13
2022-09-27T23:08:39.368Z,4.03
2022-09-27T23:11:09.269Z,4.03
2022-09-27T23:13:39.311Z,3.80
2022-09-27T23:16:08.918Z,4.70
2022-09-27T23:18:37.176Z,4.07
2022-09-27T23:21:09.761Z,4.70
2022-09-27T23:23:40.550Z,4.60
2022-09-27T23:26:09.485Z,3.65
2022-09-27T23:28:36.530Z,3.92
2022-09-27T23:31:08.159Z,4.13
2022-09-27T23:33:37.002Z,4.32
2022-09-27T23:36:04.960Z,4.27
2022-09-27T23:38:32.448Z,4.32
2022-09-27T23:41:00.101Z,4.20
2022-09-27T23:43:27.307Z,4.07
2022-09-27T23:45:55.939Z,4.50
2022-09-27T23:48:23.333Z,4.10
2022-09-27T23:50:50.286Z,4.18
2022-09-27T23:53:16.856Z,3.88
2022-09-27T23:55:43.460Z,4.80
2022-09-27T23:58:10.547Z,4.25
